createdAt,value
2023-05-05T00:00:27.012Z,101038.61
2023-05-05T00:02:55.071Z,101037.42
2023-05-05T00:05:26.183Z,101043.21
2023-05-05T00:08:07.431Z,101045.30
2023-05-05T00:10:38.970Z,101050.15
2023-05-05T00:15:53.191Z,101042.89
2023-05-05T00:18:22.116Z,101041.45
2023-05-05T00:20:49.505Z,101043.81
2023-05-05T00:23:16.951Z,101044.73
2023-05-05T00:25:47.524Z,101048.33
2023-05-05T00:28:17.658Z,101053.48
2023-05-05T00:31:05.109Z,101052.84
2023-05-05T00:33:35.105Z,101047.42
2023-05-05T00:36:05.435Z,101043.84
2023-05-05T00:41:25.583Z,101046.94
2023-05-05T00:43:53.469Z,101052.15
2023-05-05T00:46:25.537Z,101053.59
2023-05-05T00:48:53.739Z,101051.09
2023-05-05T00:51:21.636Z,101049.10
2023-05-05T00:53:48.772Z,101050.98
2023-05-05T00:56:21.752Z,101051.79
2023-05-05T00:58:55.805Z,101050.98
2023-05-05T01:01:52.337Z,101048.89
2023-05-05T01:04:27.755Z,101047.31
2023-05-05T01:07:29.218Z,101042.58
2023-05-05T01:11:02.658Z,101039.89
2023-05-05T01:14:02.085Z,101037.05
2023-05-05T01:16:55.554Z,101045.67
2023-05-05T01:23:08.336Z,101036.50
2023-05-05T01:26:02.184Z,101031.45
2023-05-05T01:28:41.824Z,101025.17
2023-05-05T01:31:45.354Z,101026.61
2023-05-05T01:34:14.910Z,101029.49
2023-05-05T01:36:46.039Z,101025.73
2023-05-05T01:39:15.798Z,101029.38
2023-05-05T01:41:47.605Z,101030.70
2023-05-05T01:44:16.631Z,101034.41
2023-05-05T01:46:49.980Z,101034.15
2023-05-05T01:49:18.612Z,101031.95
2023-05-05T01:51:49.043Z,101028.95
2023-05-05T01:54:16.234Z,101028.63
2023-05-05T01:56:43.460Z,101030.52
2023-05-05T01:59:13.721Z,101028.31
2023-05-05T02:01:41.555Z,101022.95
2023-05-05T02:04:12.453Z,101021.56
2023-05-05T02:06:39.521Z,101031.48
2023-05-05T02:09:08.045Z,101032.47
2023-05-05T02:11:36.086Z,101030.65
2023-05-05T02:14:03.092Z,101030.67
2023-05-05T02:16:32.594Z,101031.14
2023-05-05T02:19:01.976Z,101032.45
2023-05-05T02:21:29.038Z,101035.96
2023-05-05T02:23:56.172Z,101038.05
2023-05-05T02:26:23.096Z,101035.52
2023-05-05T02:29:01.853Z,101039.98
2023-05-05T02:31:29.516Z,101041.50
2023-05-05T02:33:58.405Z,101041.50
2023-05-05T02:36:28.081Z,101039.04
2023-05-05T02:39:02.946Z,101040.15
2023-05-05T02:41:31.536Z,101042.88
2023-05-05T02:44:00.477Z,101035.47
2023-05-05T02:46:28.471Z,101038.69
2023-05-05T02:48:55.409Z,101034.86
2023-05-05T02:51:23.264Z,101034.45
2023-05-05T02:53:51.850Z,101032.57
2023-05-05T02:56:57.634Z,101035.23
2023-05-05T02:59:36.360Z,101030.27
2023-05-05T03:02:15.181Z,101032.40
2023-05-05T03:04:51.978Z,101040.98
2023-05-05T03:07:24.389Z,101045.99
2023-05-05T03:10:09.261Z,101042.50
2023-05-05T03:12:48.732Z,101039.71
2023-05-05T03:15:22.595Z,101041.02
2023-05-05T03:17:50.056Z,101049.04
2023-05-05T03:20:19.877Z,101045.68
2023-05-05T03:22:47.436Z,101048.27
2023-05-05T03:25:15.387Z,101048.64
2023-05-05T03:27:42.624Z,101053.06
2023-05-05T03:30:11.326Z,101060.55
2023-05-05T03:32:46.612Z,101063.30
2023-05-05T03:35:14.524Z,101067.13
2023-05-05T03:37:42.108Z,101067.32
2023-05-05T03:40:10.509Z,101066.51
2023-05-05T03:42:47.466Z,101063.64
2023-05-05T03:45:14.940Z,101065.76
2023-05-05T03:47:41.970Z,101063.89
2023-05-05T03:50:10.858Z,101060.35
2023-05-05T03:52:38.297Z,101060.91
2023-05-05T03:55:06.398Z,101063.70
2023-05-05T03:57:34.475Z,101065.70
2023-05-05T04:00:01.945Z,101066.99
2023-05-05T04:02:30.647Z,101070.35
2023-05-05T04:04:57.555Z,101077.81
2023-05-05T04:07:25.635Z,101078.29
2023-05-05T04:09:52.819Z,101080.80
2023-05-05T04:12:20.384Z,101078.08
2023-05-05T04:14:47.521Z,101081.96
2023-05-05T04:17:14.496Z,101083.96
2023-05-05T04:19:43.072Z,101084.95
2023-05-05T04:22:11.082Z,101081.96
2023-05-05T04:24:38.243Z,101081.23
2023-05-05T04:27:05.656Z,101078.39
2023-05-05T04:29:33.077Z,101078.98
2023-05-05T04:32:02.769Z,101083.21
2023-05-05T04:34:30.509Z,101082.25
2023-05-05T04:36:57.456Z,101082.85
2023-05-05T04:40:03.387Z,101081.29
2023-05-05T04:45:58.321Z,101074.73
2023-05-05T04:48:34.570Z,101066.05
2023-05-05T04:51:05.232Z,101071.16
2023-05-05T04:53:44.532Z,101077.62
2023-05-05T04:56:17.267Z,101085.57
2023-05-05T04:58:47.851Z,101096.33
2023-05-05T05:01:16.758Z,101098.96
2023-05-05T05:03:45.772Z,101096.98
2023-05-05T05:06:23.152Z,101094.15
2023-05-05T05:08:53.130Z,101093.95
2023-05-05T05:11:21.618Z,101092.23
2023-05-05T05:13:48.602Z,101100.02
2023-05-05T05:16:15.669Z,101100.92
2023-05-05T05:18:46.206Z,101105.13
2023-05-05T05:21:13.705Z,101106.59
2023-05-05T05:23:40.723Z,101110.45
2023-05-05T05:26:07.712Z,101115.23
2023-05-05T05:28:35.576Z,101112.23
2023-05-05T05:31:02.581Z,101115.23
2023-05-05T05:33:30.418Z,101115.79
2023-05-05T05:35:57.988Z,101118.27
2023-05-05T05:38:25.634Z,101118.42
2023-05-05T05:40:55.594Z,101121.16
2023-05-05T05:43:22.785Z,101124.54
2023-05-05T05:45:50.295Z,101120.60
2023-05-05T05:48:18.590Z,101112.96
2023-05-05T05:50:45.790Z,101109.90
2023-05-05T05:53:14.230Z,101105.33
2023-05-05T05:55:45.491Z,101106.14
2023-05-05T05:58:13.824Z,101108.36
2023-05-05T06:00:40.926Z,101110.69
2023-05-05T06:03:09.300Z,101113.36
2023-05-05T06:05:37.620Z,101114.61
2023-05-05T06:08:04.849Z,101117.94
2023-05-05T06:10:35.394Z,101114.59
2023-05-05T06:13:10.499Z,101110.61
2023-05-05T06:15:40.969Z,101115.61
2023-05-05T06:18:08.713Z,101117.01
2023-05-05T06:20:36.626Z,101115.70
2023-05-05T06:23:03.458Z,101114.64
2023-05-05T06:25:33.483Z,101109.08
2023-05-05T06:28:00.463Z,101109.95
2023-05-05T06:30:27.273Z,101113.96
2023-05-05T06:32:54.110Z,101114.37
2023-05-05T06:35:21.859Z,101110.31
2023-05-05T06:37:48.622Z,101106.64
2023-05-05T06:40:15.623Z,101106.75
2023-05-05T06:42:43.333Z,101111.34
2023-05-05T06:45:15.235Z,101111.65
2023-05-05T06:47:43.559Z,101105.19
2023-05-05T06:50:12.108Z,101104.61
2023-05-05T06:52:39.635Z,101101.64
2023-05-05T06:55:06.966Z,101099.42
2023-05-05T06:57:33.996Z,101100.60
2023-05-05T07:00:03.128Z,101103.05
2023-05-05T07:02:31.250Z,101100.02
2023-05-05T07:04:58.131Z,101102.59
2023-05-05T07:07:38.363Z,101099.05
2023-05-05T07:10:06.280Z,101102.04
2023-05-05T07:12:33.947Z,101109.24
2023-05-05T07:15:09.373Z,101110.55
2023-05-05T07:17:43.876Z,101110.45
2023-05-05T07:20:11.513Z,101104.67
2023-05-05T07:22:38.991Z,101101.60
2023-05-05T07:25:09.564Z,101099.98
2023-05-05T07:27:37.024Z,101099.86
2023-05-05T07:30:11.144Z,101099.60
2023-05-05T07:32:39.818Z,101097.18
2023-05-05T07:38:33.970Z,101101.65
2023-05-05T07:41:02.113Z,101105.46
2023-05-05T07:43:38.822Z,101103.83
2023-05-05T07:46:19.917Z,101106.17
2023-05-05T07:49:09.943Z,101099.45
2023-05-05T07:51:37.434Z,101095.96
2023-05-05T07:54:04.814Z,101098.29
2023-05-05T07:56:32.216Z,101096.27
2023-05-05T07:58:58.995Z,101095.18
2023-05-05T08:01:26.795Z,101101.67
2023-05-05T08:03:54.060Z,101099.19
2023-05-05T08:06:22.504Z,101100.94
2023-05-05T08:08:49.507Z,101101.42
2023-05-05T08:11:16.606Z,101097.98
2023-05-05T08:13:47.966Z,101099.44
2023-05-05T08:16:17.030Z,101100.47
2023-05-05T08:18:47.431Z,101100.34
2023-05-05T08:21:17.366Z,101103.20
2023-05-05T08:23:45.873Z,101102.90
2023-05-05T08:26:13.954Z,101102.55
2023-05-05T08:28:41.787Z,101100.77
2023-05-05T08:31:08.949Z,101096.05
2023-05-05T08:33:36.098Z,101094.63
2023-05-05T08:36:03.395Z,101095.50
2023-05-05T08:38:30.657Z,101097.84
2023-05-05T08:40:58.163Z,101098.20
2023-05-05T08:43:25.480Z,101096.79
2023-05-05T08:45:52.556Z,101097.84
2023-05-05T08:48:22.785Z,101098.33
2023-05-05T08:50:59.572Z,101094.61
2023-05-05T08:54:01.857Z,101096.95
2023-05-05T08:56:34.018Z,101096.30
2023-05-05T08:59:01.446Z,101094.14
2023-05-05T09:01:28.636Z,101092.27
2023-05-05T09:03:55.868Z,101092.36
2023-05-05T09:06:23.881Z,101092.55
2023-05-05T09:08:50.874Z,101091.79
2023-05-05T09:11:17.800Z,101100.66
2023-05-05T09:13:44.641Z,101094.27
2023-05-05T09:16:11.462Z,101094.98
2023-05-05T09:18:40.449Z,101090.85
2023-05-05T09:21:21.400Z,101084.59
2023-05-05T09:24:09.120Z,101083.65
2023-05-05T09:26:42.069Z,101079.10
2023-05-05T09:29:09.083Z,101084.35
2023-05-05T09:31:36.703Z,101083.98
2023-05-05T09:34:16.646Z,101084.79
2023-05-05T09:36:48.905Z,101088.16
2023-05-05T09:39:20.440Z,101084.19
2023-05-05T09:41:51.246Z,101082.09
2023-05-05T09:44:34.674Z,101079.01
2023-05-05T09:47:01.621Z,101078.58
2023-05-05T09:49:29.492Z,101073.02
2023-05-05T09:51:56.815Z,101071.14
2023-05-05T09:54:29.695Z,101062.80
2023-05-05T09:56:56.600Z,101068.29
2023-05-05T09:59:23.573Z,101065.68
2023-05-05T10:04:33.239Z,101065.46
2023-05-05T10:07:00.345Z,101063.25
2023-05-05T10:09:27.350Z,101057.84
2023-05-05T10:11:54.733Z,101057.54
2023-05-05T10:14:21.561Z,101059.13
2023-05-05T10:16:50.490Z,101054.73
2023-05-05T10:19:19.303Z,101051.85
2023-05-05T10:21:52.903Z,101050.08
2023-05-05T10:24:29.070Z,101050.61
2023-05-05T10:26:56.508Z,101045.61
2023-05-05T10:29:37.252Z,101042.73
2023-05-05T10:32:27.110Z,101049.26
2023-05-05T10:34:55.865Z,101042.13
2023-05-05T10:37:22.725Z,101045.20
2023-05-05T10:39:50.035Z,101035.98
2023-05-05T10:42:19.254Z,101037.29
2023-05-05T10:44:48.895Z,101036.11
2023-05-05T10:47:16.678Z,101031.06
2023-05-05T10:49:53.982Z,101024.08
2023-05-05T10:52:39.489Z,101023.39
2023-05-05T10:55:17.686Z,101022.81
2023-05-05T10:57:45.711Z,101021.69
2023-05-05T11:00:37.583Z,101018.54
2023-05-05T11:03:16.537Z,101012.75
2023-05-05T11:06:05.416Z,101007.36
2023-05-05T11:08:35.795Z,101006.17
2023-05-05T11:11:02.949Z,101002.91
2023-05-05T11:13:30.993Z,100999.59
2023-05-05T11:15:58.771Z,100995.94
2023-05-05T11:18:38.783Z,100994.13
2023-05-05T11:21:14.885Z,100989.33
2023-05-05T11:23:47.388Z,100986.55
2023-05-05T11:26:14.732Z,100982.42
2023-05-05T11:29:02.324Z,100982.69
2023-05-05T11:31:32.789Z,100981.14
2023-05-05T11:34:27.930Z,100984.45
2023-05-05T11:36:56.913Z,100989.63
2023-05-05T11:39:38.653Z,100984.02
2023-05-05T11:42:27.640Z,100980.64
2023-05-05T11:44:54.585Z,100989.95
2023-05-05T11:47:25.952Z,100985.14
2023-05-05T11:49:55.349Z,100987.97
2023-05-05T11:52:25.785Z,100987.05
2023-05-05T11:54:52.846Z,100981.42
2023-05-05T11:57:30.991Z,100977.04
2023-05-05T12:00:03.483Z,100975.21
2023-05-05T12:02:31.945Z,100968.08
2023-05-05T12:04:59.424Z,100959.30
2023-05-05T12:07:28.105Z,100960.18
2023-05-05T12:09:56.424Z,100958.64
2023-05-05T12:12:49.505Z,100960.02
2023-05-05T12:15:17.518Z,100962.86
2023-05-05T12:17:47.450Z,100958.30
2023-05-05T12:20:14.427Z,100959.02
2023-05-05T12:22:41.406Z,100954.34
2023-05-05T12:25:08.687Z,100954.08
2023-05-05T12:27:35.615Z,100950.86
2023-05-05T12:30:16.386Z,100946.84
2023-05-05T12:32:43.842Z,100944.83
2023-05-05T12:35:13.284Z,100945.55
2023-05-05T12:37:40.194Z,100943.24
2023-05-05T12:40:08.277Z,100944.83
2023-05-05T12:42:39.523Z,100939.24
2023-05-05T12:45:07.697Z,100932.48
2023-05-05T12:47:36.417Z,100929.52
2023-05-05T12:50:03.528Z,100929.95
2023-05-05T12:52:43.993Z,100920.85
2023-05-05T12:55:11.235Z,100917.31
2023-05-05T12:57:38.711Z,100913.61
2023-05-05T13:00:13.354Z,100917.23
2023-05-05T13:02:40.618Z,100923.05
2023-05-05T13:05:08.151Z,100920.90
2023-05-05T13:07:36.044Z,100918.11
2023-05-05T13:10:10.966Z,100914.48
2023-05-05T13:12:38.765Z,100918.52
2023-05-05T13:15:06.402Z,100914.46
2023-05-05T13:17:34.803Z,100911.23
2023-05-05T13:20:01.795Z,100908.38
2023-05-05T13:22:28.847Z,100904.83
2023-05-05T13:24:55.742Z,100905.17
2023-05-05T13:27:23.109Z,100907.27
2023-05-05T13:29:52.155Z,100908.16
2023-05-05T13:32:19.211Z,100910.72
2023-05-05T13:34:46.079Z,100907.33
2023-05-05T13:37:13.944Z,100906.69
2023-05-05T13:39:41.349Z,100907.17
2023-05-05T13:42:08.223Z,100903.70
2023-05-05T13:44:36.033Z,100901.88
2023-05-05T13:47:04.455Z,100899.32
2023-05-05T13:49:34.683Z,100896.73
2023-05-05T13:52:02.233Z,100902.32
2023-05-05T13:54:29.190Z,100900.85
2023-05-05T13:56:57.933Z,100901.58
2023-05-05T13:59:25.401Z,100899.46
2023-05-05T14:01:52.334Z,100894.55
2023-05-05T14:04:19.173Z,100897.58
2023-05-05T14:06:45.992Z,100900.09
2023-05-05T14:09:12.850Z,100907.17
2023-05-05T14:11:40.614Z,100905.27
2023-05-05T14:14:07.415Z,100899.83
2023-05-05T14:16:35.584Z,100900.17
2023-05-05T14:19:03.104Z,100900.92
2023-05-05T14:21:32.053Z,100900.84
2023-05-05T14:23:58.923Z,100900.83
2023-05-05T14:26:25.845Z,100899.67
2023-05-05T14:28:52.661Z,100899.14
2023-05-05T14:31:19.553Z,100897.40
2023-05-05T14:33:46.347Z,100893.86
2023-05-05T14:36:13.777Z,100888.66
2023-05-05T14:38:42.308Z,100892.30
2023-05-05T14:41:09.253Z,100892.30
2023-05-05T14:43:36.486Z,100892.04
2023-05-05T14:46:06.100Z,100890.17
2023-05-05T14:48:33.597Z,100892.98
2023-05-05T14:51:00.536Z,100889.38
2023-05-05T14:53:27.419Z,100889.52
2023-05-05T14:55:54.372Z,100888.06
2023-05-05T14:58:23.993Z,100886.79
2023-05-05T15:00:52.503Z,100882.33
2023-05-05T15:03:19.898Z,100883.58
2023-05-05T15:05:46.754Z,100883.59
2023-05-05T15:08:14.629Z,100882.71
2023-05-05T15:10:41.343Z,100881.77
2023-05-05T15:13:08.644Z,100881.91
2023-05-05T15:15:35.670Z,100885.13
2023-05-05T15:18:04.434Z,100886.02
2023-05-05T15:20:31.375Z,100884.94
2023-05-05T15:22:58.122Z,100879.48
2023-05-05T15:25:24.867Z,100879.52
2023-05-05T15:30:34.039Z,100872.70
2023-05-05T15:33:00.954Z,100878.52
2023-05-05T15:35:27.707Z,100880.85
2023-05-05T15:37:54.741Z,100881.05
2023-05-05T15:40:22.378Z,100882.13
2023-05-05T15:42:52.023Z,100880.13
2023-05-05T15:45:18.916Z,100879.64
2023-05-05T15:47:45.933Z,100880.26
2023-05-05T15:50:13.202Z,100882.46
2023-05-05T15:52:40.081Z,100884.27
2023-05-05T15:55:08.017Z,100888.20
2023-05-05T15:57:35.419Z,100896.52
2023-05-05T16:00:02.684Z,100894.68
2023-05-05T16:02:35.209Z,100895.39
2023-05-05T16:05:02.083Z,100897.34
2023-05-05T16:07:29.294Z,100894.04
2023-05-05T16:09:56.651Z,100899.83
2023-05-05T16:12:23.595Z,100899.11
2023-05-05T16:14:50.426Z,100902.04
2023-05-05T16:17:17.264Z,100899.77
2023-05-05T16:19:44.457Z,100902.45
2023-05-05T16:22:11.223Z,100902.34
2023-05-05T16:24:38.773Z,100902.53
2023-05-05T16:27:05.586Z,100908.27
2023-05-05T16:29:32.453Z,100907.88
2023-05-05T16:32:00.279Z,100907.22
2023-05-05T16:34:27.070Z,100906.69
2023-05-05T16:36:53.839Z,100905.12
2023-05-05T16:39:20.763Z,100909.09
2023-05-05T16:41:47.590Z,100904.86
2023-05-05T16:44:15.773Z,100904.36
2023-05-05T16:46:42.661Z,100907.41
2023-05-05T16:49:09.847Z,100910.02
2023-05-05T16:51:37.665Z,100911.86
2023-05-05T16:54:06.312Z,100906.42
2023-05-05T16:56:34.279Z,100907.84
2023-05-05T16:59:01.044Z,100918.45
2023-05-05T17:01:28.074Z,100914.02
2023-05-05T17:03:56.980Z,100924.23
2023-05-05T17:06:24.752Z,100925.45
2023-05-05T17:08:52.570Z,100929.25
2023-05-05T17:11:19.453Z,100937.37
2023-05-05T17:13:48.872Z,100940.44
2023-05-05T17:16:15.727Z,100941.14
2023-05-05T17:18:42.520Z,100944.60
2023-05-05T17:21:09.282Z,100944.70
2023-05-05T17:23:36.278Z,100945.61
2023-05-05T17:26:04.655Z,100949.77
2023-05-05T17:28:32.347Z,100950.55
2023-05-05T17:30:59.552Z,100951.05
2023-05-05T17:33:27.151Z,100953.34
2023-05-05T17:35:54.116Z,100959.48
2023-05-05T17:38:21.141Z,100964.45
2023-05-05T17:40:48.034Z,100968.31
2023-05-05T17:43:15.638Z,100968.03
2023-05-05T17:45:42.736Z,100968.00
2023-05-05T17:48:09.693Z,100971.84
2023-05-05T17:50:36.850Z,100976.55
2023-05-05T17:53:04.342Z,100977.02
2023-05-05T17:55:31.515Z,100982.30
2023-05-05T17:57:58.469Z,100987.51
2023-05-05T18:00:26.685Z,100989.08
2023-05-05T18:02:53.913Z,100987.52
2023-05-05T18:05:21.021Z,100986.30
2023-05-05T18:07:48.137Z,100987.81
2023-05-05T18:10:16.126Z,100991.13
2023-05-05T18:12:43.232Z,100994.28
2023-05-05T18:15:10.798Z,100996.68
2023-05-05T18:17:38.931Z,101000.86
2023-05-05T18:20:06.671Z,101000.39
2023-05-05T18:22:36.703Z,101005.09
2023-05-05T18:27:35.729Z,101007.79
2023-05-05T18:30:04.707Z,101005.77
2023-05-05T18:32:34.240Z,101000.75
2023-05-05T18:35:01.248Z,101002.30
2023-05-05T18:37:28.738Z,101001.22
2023-05-05T18:39:55.752Z,101003.36
2023-05-05T18:42:23.726Z,101004.77
2023-05-05T18:44:50.580Z,101007.40
2023-05-05T18:47:17.385Z,101011.71
2023-05-05T18:49:45.192Z,101009.48
2023-05-05T18:52:13.085Z,101009.86
2023-05-05T18:54:40.810Z,101008.50
2023-05-05T18:57:08.137Z,101006.76
2023-05-05T18:59:36.198Z,101009.42
2023-05-05T19:02:03.128Z,101007.35
2023-05-05T19:04:32.448Z,101006.90
2023-05-05T19:06:59.466Z,101007.20
2023-05-05T19:09:26.766Z,101005.30
2023-05-05T19:11:53.532Z,101005.54
2023-05-05T19:14:20.393Z,101006.74
2023-05-05T19:16:47.225Z,101011.02
2023-05-05T19:19:14.179Z,101013.91
2023-05-05T19:21:41.078Z,101020.05
2023-05-05T19:24:08.180Z,101024.46
2023-05-05T19:26:36.114Z,101026.41
2023-05-05T19:29:02.988Z,101027.36
2023-05-05T19:31:30.700Z,101027.70
2023-05-05T19:33:59.694Z,101029.04
2023-05-05T19:36:27.326Z,101030.33
2023-05-05T19:38:57.754Z,101027.38
2023-05-05T19:41:30.594Z,101028.45
2023-05-05T19:44:00.925Z,101031.30
2023-05-05T19:46:28.054Z,101033.18
2023-05-05T19:48:55.290Z,101030.27
2023-05-05T19:51:22.358Z,101034.25
2023-05-05T19:53:50.300Z,101035.48
2023-05-05T19:56:17.076Z,101034.30
2023-05-05T19:58:58.336Z,101037.63
2023-05-05T20:01:25.758Z,101031.29
2023-05-05T20:03:53.887Z,101032.30
2023-05-05T20:06:20.948Z,101029.23
2023-05-05T20:08:47.793Z,101033.37
2023-05-05T20:11:15.168Z,101034.66
2023-05-05T20:13:42.553Z,101034.33
2023-05-05T20:16:09.537Z,101036.04
2023-05-05T20:18:36.660Z,101041.52
2023-05-05T20:21:03.532Z,101040.59
2023-05-05T20:23:32.200Z,101044.73
2023-05-05T20:25:59.085Z,101044.70
2023-05-05T20:28:26.375Z,101048.58
2023-05-05T20:30:53.329Z,101052.70
2023-05-05T20:33:20.482Z,101048.02
2023-05-05T20:35:47.237Z,101050.88
2023-05-05T20:38:14.331Z,101052.13
2023-05-05T20:40:41.548Z,101051.06
2023-05-05T20:43:09.334Z,101051.17
2023-05-05T20:45:36.668Z,101053.91
2023-05-05T20:48:05.065Z,101054.34
2023-05-05T20:50:32.437Z,101056.27
2023-05-05T20:52:59.301Z,101059.64
2023-05-05T20:55:26.193Z,101060.56
2023-05-05T20:57:53.412Z,101059.37
2023-05-05T21:00:20.220Z,101064.80
2023-05-05T21:02:47.594Z,101068.98
2023-05-05T21:05:14.581Z,101069.02
2023-05-05T21:07:41.524Z,101070.61
2023-05-05T21:10:10.096Z,101071.89
2023-05-05T21:12:37.159Z,101071.77
2023-05-05T21:15:04.402Z,101067.70
2023-05-05T21:17:32.447Z,101068.27
2023-05-05T21:19:59.458Z,101068.45
2023-05-05T21:22:26.180Z,101072.20
2023-05-05T21:24:54.442Z,101079.96
2023-05-05T21:27:24.635Z,101082.73
2023-05-05T21:29:51.681Z,101092.98
2023-05-05T21:32:18.669Z,101096.17
2023-05-05T21:34:45.763Z,101095.02
2023-05-05T21:37:12.632Z,101095.73
2023-05-05T21:39:39.494Z,101099.80
2023-05-05T21:42:06.272Z,101100.64
2023-05-05T21:44:33.046Z,101108.46
2023-05-05T21:46:59.857Z,101106.48
2023-05-05T21:49:26.713Z,101106.88
2023-05-05T21:51:55.930Z,101109.05
2023-05-05T21:54:23.094Z,101111.75
2023-05-05T21:56:49.997Z,101110.96
2023-05-05T21:59:17.415Z,101115.08
2023-05-05T22:01:44.453Z,101114.13
2023-05-05T22:04:11.259Z,101111.84
2023-05-05T22:06:38.053Z,101112.88
2023-05-05T22:09:04.863Z,101114.51
2023-05-05T22:11:33.074Z,101116.02
2023-05-05T22:14:00.729Z,101112.09
2023-05-05T22:16:28.251Z,101111.09
2023-05-05T22:18:55.046Z,101109.92
2023-05-05T22:21:21.837Z,101115.67
2023-05-05T22:23:48.833Z,101121.45
2023-05-05T22:26:16.785Z,101124.67
2023-05-05T22:28:43.722Z,101126.70
2023-05-05T22:31:10.497Z,101128.77
2023-05-05T22:33:37.501Z,101131.39
2023-05-05T22:36:05.535Z,101129.81
2023-05-05T22:38:32.955Z,101133.36
2023-05-05T22:41:00.852Z,101139.83
2023-05-05T22:43:29.124Z,101140.02
2023-05-05T22:45:56.659Z,101141.90
2023-05-05T22:48:25.217Z,101141.69
2023-05-05T22:50:52.049Z,101141.79
2023-05-05T22:53:18.873Z,101142.52
2023-05-05T22:55:45.756Z,101144.94
2023-05-05T22:58:12.532Z,101145.82
2023-05-05T23:00:40.130Z,101140.64
2023-05-05T23:03:06.990Z,101144.23
2023-05-05T23:05:34.664Z,101145.73
2023-05-05T23:08:01.806Z,101144.34
2023-05-05T23:10:28.688Z,101143.48
2023-05-05T23:12:55.695Z,101143.59
2023-05-05T23:15:23.427Z,101138.61
2023-05-05T23:17:50.332Z,101142.09
2023-05-05T23:20:17.193Z,101142.05
2023-05-05T23:22:44.081Z,101142.89
2023-05-05T23:25:11.090Z,101144.99
2023-05-05T23:27:39.790Z,101146.07
2023-05-05T23:30:08.309Z,101147.04
2023-05-05T23:32:35.607Z,101148.38
2023-05-05T23:35:02.420Z,101146.48
2023-05-05T23:37:29.552Z,101151.02
2023-05-05T23:39:56.497Z,101154.87
2023-05-05T23:42:23.874Z,101158.86
2023-05-05T23:44:50.800Z,101158.73
2023-05-05T23:47:17.630Z,101165.94
2023-05-05T23:49:44.448Z,101165.63
2023-05-05T23:52:11.330Z,101171.85
2023-05-05T23:54:38.536Z,101171.48
2023-05-05T23:57:06.081Z,101173.70
2023-05-05T23:59:33.603Z,101177.30
